sensor_id;sensor_type;location;lat;lon;timestamp;temperature;humidity
39969;DHT22;25648;47.808;19.004;2022-07-29T00:01:53;30.40;51.50
39969;DHT22;25648;47.808;19.004;2022-07-29T00:04:19;30.10;52.10
39969;DHT22;25648;47.808;19.004;2022-07-29T00:06:45;29.90;52.30
39969;DHT22;25648;47.808;19.004;2022-07-29T00:09:10;29.80;52.40
39969;DHT22;25648;47.808;19.004;2022-07-29T00:11:36;30.00;52.10
39969;DHT22;25648;47.808;19.004;2022-07-29T00:14:02;30.10;52.10
39969;DHT22;25648;47.808;19.004;2022-07-29T00:16:27;30.20;52.20
39969;DHT22;25648;47.808;19.004;2022-07-29T00:18:53;30.20;51.80
39969;DHT22;25648;47.808;19.004;2022-07-29T00:21:19;30.30;51.80
39969;DHT22;25648;47.808;19.004;2022-07-29T00:23:44;30.40;51.90
39969;DHT22;25648;47.808;19.004;2022-07-29T00:26:10;30.40;51.60
39969;DHT22;25648;47.808;19.004;2022-07-29T00:28:36;30.40;51.60
39969;DHT22;25648;47.808;19.004;2022-07-29T00:31:01;30.30;51.60
39969;DHT22;25648;47.808;19.004;2022-07-29T00:33:28;30.20;51.80
39969;DHT22;25648;47.808;19.004;2022-07-29T00:35:54;30.10;52.00
39969;DHT22;25648;47.808;19.004;2022-07-29T00:38:20;29.80;52.20
39969;DHT22;25648;47.808;19.004;2022-07-29T00:40:46;29.70;52.50
39969;DHT22;25648;47.808;19.004;2022-07-29T00:43:13;29.60;52.70
39969;DHT22;25648;47.808;19.004;2022-07-29T00:45:39;29.70;52.60
39969;DHT22;25648;47.808;19.004;2022-07-29T00:48:05;29.80;52.60
39969;DHT22;25648;47.808;19.004;2022-07-29T00:50:32;29.80;52.40
39969;DHT22;25648;47.808;19.004;2022-07-29T00:52:58;29.70;52.70
39969;DHT22;25648;47.808;19.004;2022-07-29T00:55:24;29.50;52.80
39969;DHT22;25648;47.808;19.004;2022-07-29T00:57:50;29.60;53.00
39969;DHT22;25648;47.808;19.004;2022-07-29T01:00:25;29.60;52.50
39969;DHT22;25648;47.808;19.004;2022-07-29T01:02:51;29.70;52.50
39969;DHT22;25648;47.808;19.004;2022-07-29T01:05:19;29.70;52.40
39969;DHT22;25648;47.808;19.004;2022-07-29T01:07:46;29.80;52.50
39969;DHT22;25648;47.808;19.004;2022-07-29T01:10:14;29.80;52.20
39969;DHT22;25648;47.808;19.004;2022-07-29T01:12:43;29.70;52.10
39969;DHT22;25648;47.808;19.004;2022-07-29T01:15:10;29.70;52.40
39969;DHT22;25648;47.808;19.004;2022-07-29T01:17:43;29.60;52.40
39969;DHT22;25648;47.808;19.004;2022-07-29T01:31:50;28.60;54.40
39969;DHT22;25648;47.808;19.004;2022-07-29T01:34:21;28.70;54.00
39969;DHT22;25648;47.808;19.004;2022-07-29T01:36:52;28.90;53.80
39969;DHT22;25648;47.808;19.004;2022-07-29T01:39:33;29.20;53.40
39969;DHT22;25648;47.808;19.004;2022-07-29T01:42:08;29.30;53.00
39969;DHT22;25648;47.808;19.004;2022-07-29T01:44:45;29.40;53.10
39969;DHT22;25648;47.808;19.004;2022-07-29T01:47:17;29.40;52.90
39969;DHT22;25648;47.808;19.004;2022-07-29T01:49:48;29.30;53.20
39969;DHT22;25648;47.808;19.004;2022-07-29T01:52:20;29.20;53.20
39969;DHT22;25648;47.808;19.004;2022-07-29T01:54:54;29.20;53.20
39969;DHT22;25648;47.808;19.004;2022-07-29T01:57:26;29.30;52.90
39969;DHT22;25648;47.808;19.004;2022-07-29T01:59:53;29.30;53.20
39969;DHT22;25648;47.808;19.004;2022-07-29T02:02:21;29.30;53.00
39969;DHT22;25648;47.808;19.004;2022-07-29T02:04:47;29.10;53.10
39969;DHT22;25648;47.808;19.004;2022-07-29T02:07:19;28.70;53.60
39969;DHT22;25648;47.808;19.004;2022-07-29T02:09:46;28.40;53.70
39969;DHT22;25648;47.808;19.004;2022-07-29T02:12:14;28.40;53.90
39969;DHT22;25648;47.808;19.004;2022-07-29T02:14:45;28.40;54.30
39969;DHT22;25648;47.808;19.004;2022-07-29T02:17:13;28.60;54.10
39969;DHT22;25648;47.808;19.004;2022-07-29T02:19:43;28.70;54.10
39969;DHT22;25648;47.808;19.004;2022-07-29T02:22:11;28.80;53.90
39969;DHT22;25648;47.808;19.004;2022-07-29T02:24:38;28.90;53.80
39969;DHT22;25648;47.808;19.004;2022-07-29T02:27:07;28.80;54.00
39969;DHT22;25648;47.808;19.004;2022-07-29T02:29:34;28.80;54.00
39969;DHT22;25648;47.808;19.004;2022-07-29T02:32:02;28.80;53.90
39969;DHT22;25648;47.808;19.004;2022-07-29T02:34:29;28.80;54.10
39969;DHT22;25648;47.808;19.004;2022-07-29T02:36:55;28.80;54.10
39969;DHT22;25648;47.808;19.004;2022-07-29T02:39:22;28.60;54.20
39969;DHT22;25648;47.808;19.004;2022-07-29T02:41:56;28.60;54.30
39969;DHT22;25648;47.808;19.004;2022-07-29T02:44:25;28.70;54.00
39969;DHT22;25648;47.808;19.004;2022-07-29T02:52:09;28.70;53.40
39969;DHT22;25648;47.808;19.004;2022-07-29T02:54:44;28.10;54.80
39969;DHT22;25648;47.808;19.004;2022-07-29T02:57:20;28.10;54.50
39969;DHT22;25648;47.808;19.004;2022-07-29T02:59:49;28.20;54.50
39969;DHT22;25648;47.808;19.004;2022-07-29T03:02:17;28.30;54.20
39969;DHT22;25648;47.808;19.004;2022-07-29T03:04:44;28.40;54.10
39969;DHT22;25648;47.808;19.004;2022-07-29T03:07:13;28.40;54.20
39969;DHT22;25648;47.808;19.004;2022-07-29T03:09:41;28.00;54.20
39969;DHT22;25648;47.808;19.004;2022-07-29T03:12:08;27.90;54.80
39969;DHT22;25648;47.808;19.004;2022-07-29T03:14:35;28.10;54.70
39969;DHT22;25648;47.808;19.004;2022-07-29T03:17:01;28.30;54.30
39969;DHT22;25648;47.808;19.004;2022-07-29T03:19:28;28.30;54.30
39969;DHT22;25648;47.808;19.004;2022-07-29T03:21:58;28.30;54.20
39969;DHT22;25648;47.808;19.004;2022-07-29T03:26:52;28.20;54.30
39969;DHT22;25648;47.808;19.004;2022-07-29T03:29:17;28.20;54.40
39969;DHT22;25648;47.808;19.004;2022-07-29T03:31:43;28.20;54.30
39969;DHT22;25648;47.808;19.004;2022-07-29T03:34:08;28.30;54.30
39969;DHT22;25648;47.808;19.004;2022-07-29T03:36:34;28.30;54.70
39969;DHT22;25648;47.808;19.004;2022-07-29T03:39:00;28.40;54.20
39969;DHT22;25648;47.808;19.004;2022-07-29T03:41:28;28.40;54.00
39969;DHT22;25648;47.808;19.004;2022-07-29T03:43:55;28.50;54.20
39969;DHT22;25648;47.808;19.004;2022-07-29T03:46:22;28.30;54.60
39969;DHT22;25648;47.808;19.004;2022-07-29T03:48:51;28.20;55.00
39969;DHT22;25648;47.808;19.004;2022-07-29T03:51:18;28.30;54.70
39969;DHT22;25648;47.808;19.004;2022-07-29T03:53:44;28.10;54.40
39969;DHT22;25648;47.808;19.004;2022-07-29T03:56:10;28.10;54.70
39969;DHT22;25648;47.808;19.004;2022-07-29T03:58:41;28.40;54.70
39969;DHT22;25648;47.808;19.004;2022-07-29T04:01:07;28.60;54.20
39969;DHT22;25648;47.808;19.004;2022-07-29T04:03:34;28.80;54.10
39969;DHT22;25648;47.808;19.004;2022-07-29T04:06:05;28.70;54.20
39969;DHT22;25648;47.808;19.004;2022-07-29T04:08:34;28.80;54.20
39969;DHT22;25648;47.808;19.004;2022-07-29T04:11:00;28.90;53.90
39969;DHT22;25648;47.808;19.004;2022-07-29T04:13:26;29.00;54.10
39969;DHT22;25648;47.808;19.004;2022-07-29T04:15:52;29.10;54.10
39969;DHT22;25648;47.808;19.004;2022-07-29T04:18:18;29.00;53.90
39969;DHT22;25648;47.808;19.004;2022-07-29T04:20:43;29.20;54.00
39969;DHT22;25648;47.808;19.004;2022-07-29T04:23:09;29.10;54.00
39969;DHT22;25648;47.808;19.004;2022-07-29T04:25:41;28.80;54.40
39969;DHT22;25648;47.808;19.004;2022-07-29T04:28:08;28.90;54.30
39969;DHT22;25648;47.808;19.004;2022-07-29T04:30:35;29.10;54.00
39969;DHT22;25648;47.808;19.004;2022-07-29T04:33:02;28.90;53.30
39969;DHT22;25648;47.808;19.004;2022-07-29T04:35:29;28.40;53.30
39969;DHT22;25648;47.808;19.004;2022-07-29T04:37:54;27.70;54.30
39969;DHT22;25648;47.808;19.004;2022-07-29T04:40:20;27.30;55.00
39969;DHT22;25648;47.808;19.004;2022-07-29T04:42:46;27.40;55.50
39969;DHT22;25648;47.808;19.004;2022-07-29T04:45:12;28.10;54.90
39969;DHT22;25648;47.808;19.004;2022-07-29T04:47:37;28.50;53.50
39969;DHT22;25648;47.808;19.004;2022-07-29T04:50:03;28.40;53.50
39969;DHT22;25648;47.808;19.004;2022-07-29T04:52:30;28.30;54.10
39969;DHT22;25648;47.808;19.004;2022-07-29T04:54:56;28.60;53.80
39969;DHT22;25648;47.808;19.004;2022-07-29T04:57:22;28.70;53.10
39969;DHT22;25648;47.808;19.004;2022-07-29T04:59:47;28.70;53.40
39969;DHT22;25648;47.808;19.004;2022-07-29T05:02:14;28.90;53.60
39969;DHT22;25648;47.808;19.004;2022-07-29T05:04:39;29.10;53.60
39969;DHT22;25648;47.808;19.004;2022-07-29T05:07:05;29.50;53.20
39969;DHT22;25648;47.808;19.004;2022-07-29T05:09:31;29.90;52.90
39969;DHT22;25648;47.808;19.004;2022-07-29T05:11:57;30.20;52.40
39969;DHT22;25648;47.808;19.004;2022-07-29T05:14:23;30.30;52.50
39969;DHT22;25648;47.808;19.004;2022-07-29T05:16:49;30.40;52.30
39969;DHT22;25648;47.808;19.004;2022-07-29T05:19:17;30.50;52.30
39969;DHT22;25648;47.808;19.004;2022-07-29T05:21:44;30.70;52.30
39969;DHT22;25648;47.808;19.004;2022-07-29T05:24:10;30.50;51.00
39969;DHT22;25648;47.808;19.004;2022-07-29T05:26:35;30.10;51.80
39969;DHT22;25648;47.808;19.004;2022-07-29T05:29:01;30.20;52.10
39969;DHT22;25648;47.808;19.004;2022-07-29T05:31:27;30.40;52.30
39969;DHT22;25648;47.808;19.004;2022-07-29T05:33:52;30.60;52.40
39969;DHT22;25648;47.808;19.004;2022-07-29T05:36:18;30.70;51.60
39969;DHT22;25648;47.808;19.004;2022-07-29T05:38:44;30.90;52.40
39969;DHT22;25648;47.808;19.004;2022-07-29T05:41:10;31.10;52.20
39969;DHT22;25648;47.808;19.004;2022-07-29T05:43:35;31.30;51.90
39969;DHT22;25648;47.808;19.004;2022-07-29T05:46:01;31.50;50.50
39969;DHT22;25648;47.808;19.004;2022-07-29T05:48:27;30.80;51.20
39969;DHT22;25648;47.808;19.004;2022-07-29T05:50:53;30.60;51.30
39969;DHT22;25648;47.808;19.004;2022-07-29T05:53:18;30.80;51.10
39969;DHT22;25648;47.808;19.004;2022-07-29T05:55:44;31.20;51.10
39969;DHT22;25648;47.808;19.004;2022-07-29T05:58:10;30.70;50.90
39969;DHT22;25648;47.808;19.004;2022-07-29T06:00:35;30.50;51.00
39969;DHT22;25648;47.808;19.004;2022-07-29T06:03:01;30.80;50.60
39969;DHT22;25648;47.808;19.004;2022-07-29T06:05:27;30.60;50.30
39969;DHT22;25648;47.808;19.004;2022-07-29T06:07:53;30.30;51.40
39969;DHT22;25648;47.808;19.004;2022-07-29T06:10:18;30.60;50.80
39969;DHT22;25648;47.808;19.004;2022-07-29T06:12:44;30.40;51.40
39969;DHT22;25648;47.808;19.004;2022-07-29T06:15:10;30.50;50.90
39969;DHT22;25648;47.808;19.004;2022-07-29T06:17:36;30.20;51.10
39969;DHT22;25648;47.808;19.004;2022-07-29T06:20:03;30.60;51.10
39969;DHT22;25648;47.808;19.004;2022-07-29T06:22:28;31.10;50.30
39969;DHT22;25648;47.808;19.004;2022-07-29T06:24:55;31.50;49.70
39969;DHT22;25648;47.808;19.004;2022-07-29T06:27:21;31.80;49.60
39969;DHT22;25648;47.808;19.004;2022-07-29T06:29:46;31.90;49.70
39969;DHT22;25648;47.808;19.004;2022-07-29T06:32:12;32.10;49.70
39969;DHT22;25648;47.808;19.004;2022-07-29T06:34:38;32.30;49.30
39969;DHT22;25648;47.808;19.004;2022-07-29T06:37:08;32.60;49.30
39969;DHT22;25648;47.808;19.004;2022-07-29T06:39:36;32.70;49.20
39969;DHT22;25648;47.808;19.004;2022-07-29T06:42:05;32.60;49.20
39969;DHT22;25648;47.808;19.004;2022-07-29T06:44:31;32.80;49.30
39969;DHT22;25648;47.808;19.004;2022-07-29T06:46:59;33.00;49.50
39969;DHT22;25648;47.808;19.004;2022-07-29T06:49:25;32.80;49.10
39969;DHT22;25648;47.808;19.004;2022-07-29T06:51:52;32.60;49.20
39969;DHT22;25648;47.808;19.004;2022-07-29T06:54:18;32.20;49.70
39969;DHT22;25648;47.808;19.004;2022-07-29T06:56:43;32.20;48.80
39969;DHT22;25648;47.808;19.004;2022-07-29T06:59:10;32.60;48.60
39969;DHT22;25648;47.808;19.004;2022-07-29T07:01:39;33.00;48.40
39969;DHT22;25648;47.808;19.004;2022-07-29T07:04:05;32.40;48.30
39969;DHT22;25648;47.808;19.004;2022-07-29T07:06:31;32.10;48.50
39969;DHT22;25648;47.808;19.004;2022-07-29T07:08:56;32.50;48.70
39969;DHT22;25648;47.808;19.004;2022-07-29T07:11:22;32.80;48.50
39969;DHT22;25648;47.808;19.004;2022-07-29T07:13:48;33.20;48.70
39969;DHT22;25648;47.808;19.004;2022-07-29T07:16:14;33.20;49.10
39969;DHT22;25648;47.808;19.004;2022-07-29T07:18:39;33.30;48.60
39969;DHT22;25648;47.808;19.004;2022-07-29T07:21:05;33.40;48.20
39969;DHT22;25648;47.808;19.004;2022-07-29T07:23:33;33.40;47.20
39969;DHT22;25648;47.808;19.004;2022-07-29T07:25:59;33.10;46.90
39969;DHT22;25648;47.808;19.004;2022-07-29T07:28:25;32.80;47.00
39969;DHT22;25648;47.808;19.004;2022-07-29T07:30:51;32.70;47.80
39969;DHT22;25648;47.808;19.004;2022-07-29T07:33:17;32.70;49.00
39969;DHT22;25648;47.808;19.004;2022-07-29T07:35:43;32.70;47.80
39969;DHT22;25648;47.808;19.004;2022-07-29T07:38:09;32.60;48.50
39969;DHT22;25648;47.808;19.004;2022-07-29T07:40:35;32.70;48.10
39969;DHT22;25648;47.808;19.004;2022-07-29T07:43:01;32.60;48.30
39969;DHT22;25648;47.808;19.004;2022-07-29T07:45:27;32.80;48.70
39969;DHT22;25648;47.808;19.004;2022-07-29T07:47:53;33.10;48.20
39969;DHT22;25648;47.808;19.004;2022-07-29T07:50:19;33.00;47.80
39969;DHT22;25648;47.808;19.004;2022-07-29T07:52:53;32.70;48.10
39969;DHT22;25648;47.808;19.004;2022-07-29T07:55:20;32.80;48.10
39969;DHT22;25648;47.808;19.004;2022-07-29T07:57:46;32.90;48.30
39969;DHT22;25648;47.808;19.004;2022-07-29T08:00:14;33.30;48.60
39969;DHT22;25648;47.808;19.004;2022-07-29T08:02:40;33.70;47.70
39969;DHT22;25648;47.808;19.004;2022-07-29T08:05:07;33.30;47.40
39969;DHT22;25648;47.808;19.004;2022-07-29T08:07:33;33.10;48.10
39969;DHT22;25648;47.808;19.004;2022-07-29T08:09:59;33.50;48.80
39969;DHT22;25648;47.808;19.004;2022-07-29T08:12:25;34.00;47.20
39969;DHT22;25648;47.808;19.004;2022-07-29T08:14:50;34.00;47.50
39969;DHT22;25648;47.808;19.004;2022-07-29T08:17:16;34.40;46.90
39969;DHT22;25648;47.808;19.004;2022-07-29T08:19:42;34.40;46.80
39969;DHT22;25648;47.808;19.004;2022-07-29T08:22:08;34.60;47.60
39969;DHT22;25648;47.808;19.004;2022-07-29T08:24:33;34.70;46.30
39969;DHT22;25648;47.808;19.004;2022-07-29T08:27:09;33.50;47.30
39969;DHT22;25648;47.808;19.004;2022-07-29T08:29:35;33.40;48.00
39969;DHT22;25648;47.808;19.004;2022-07-29T08:32:01;33.50;47.90
39969;DHT22;25648;47.808;19.004;2022-07-29T08:34:27;33.80;48.20
39969;DHT22;25648;47.808;19.004;2022-07-29T08:36:54;33.60;47.00
39969;DHT22;25648;47.808;19.004;2022-07-29T08:39:20;33.20;48.00
39969;DHT22;25648;47.808;19.004;2022-07-29T08:41:46;33.50;47.40
39969;DHT22;25648;47.808;19.004;2022-07-29T08:44:15;33.20;47.40
39969;DHT22;25648;47.808;19.004;2022-07-29T08:46:41;33.00;47.70
39969;DHT22;25648;47.808;19.004;2022-07-29T08:49:07;33.20;47.90
39969;DHT22;25648;47.808;19.004;2022-07-29T08:51:33;33.70;47.70
39969;DHT22;25648;47.808;19.004;2022-07-29T08:54:01;34.30;47.10
39969;DHT22;25648;47.808;19.004;2022-07-29T08:56:30;35.00;47.20
39969;DHT22;25648;47.808;19.004;2022-07-29T08:58:58;35.30;46.70
39969;DHT22;25648;47.808;19.004;2022-07-29T09:01:27;35.60;45.90
39969;DHT22;25648;47.808;19.004;2022-07-29T09:03:55;35.60;45.90
39969;DHT22;25648;47.808;19.004;2022-07-29T09:06:22;35.00;46.00
39969;DHT22;25648;47.808;19.004;2022-07-29T09:08:53;35.00;46.40
39969;DHT22;25648;47.808;19.004;2022-07-29T09:11:20;34.90;46.20
39969;DHT22;25648;47.808;19.004;2022-07-29T09:13:47;35.00;46.60
39969;DHT22;25648;47.808;19.004;2022-07-29T09:16:14;35.30;45.80
39969;DHT22;25648;47.808;19.004;2022-07-29T09:18:42;35.20;45.90
39969;DHT22;25648;47.808;19.004;2022-07-29T09:21:11;35.40;45.60
39969;DHT22;25648;47.808;19.004;2022-07-29T09:24:03;35.80;46.50
39969;DHT22;25648;47.808;19.004;2022-07-29T09:26:36;36.10;45.40
39969;DHT22;25648;47.808;19.004;2022-07-29T09:29:17;36.30;44.20
39969;DHT22;25648;47.808;19.004;2022-07-29T09:31:47;36.30;44.50
39969;DHT22;25648;47.808;19.004;2022-07-29T09:34:14;36.30;45.20
39969;DHT22;25648;47.808;19.004;2022-07-29T09:36:45;36.60;45.40
39969;DHT22;25648;47.808;19.004;2022-07-29T09:39:12;36.90;44.40
39969;DHT22;25648;47.808;19.004;2022-07-29T09:44:14;36.70;44.80
39969;DHT22;25648;47.808;19.004;2022-07-29T09:46:52;36.60;44.30
39969;DHT22;25648;47.808;19.004;2022-07-29T09:49:17;36.40;44.90
39969;DHT22;25648;47.808;19.004;2022-07-29T09:51:43;36.50;44.40
39969;DHT22;25648;47.808;19.004;2022-07-29T09:54:24;36.50;43.70
39969;DHT22;25648;47.808;19.004;2022-07-29T09:56:55;36.60;43.80
39969;DHT22;25648;47.808;19.004;2022-07-29T09:59:21;36.60;44.70
39969;DHT22;25648;47.808;19.004;2022-07-29T10:01:49;37.00;44.50
39969;DHT22;25648;47.808;19.004;2022-07-29T10:04:15;37.10;44.40
39969;DHT22;25648;47.808;19.004;2022-07-29T10:07:02;37.00;44.00
39969;DHT22;25648;47.808;19.004;2022-07-29T10:09:31;37.00;44.40
39969;DHT22;25648;47.808;19.004;2022-07-29T10:12:06;37.30;44.20
39969;DHT22;25648;47.808;19.004;2022-07-29T10:14:32;37.40;43.10
39969;DHT22;25648;47.808;19.004;2022-07-29T10:17:03;37.20;43.30
39969;DHT22;25648;47.808;19.004;2022-07-29T10:19:29;37.40;43.00
39969;DHT22;25648;47.808;19.004;2022-07-29T10:22:00;37.30;42.80
39969;DHT22;25648;47.808;19.004;2022-07-29T10:24:27;37.70;43.90
39969;DHT22;25648;47.808;19.004;2022-07-29T10:26:59;38.00;42.30
39969;DHT22;25648;47.808;19.004;2022-07-29T10:29:25;38.20;41.50
39969;DHT22;25648;47.808;19.004;2022-07-29T10:43:33;38.30;42.00
39969;DHT22;25648;47.808;19.004;2022-07-29T10:46:02;38.30;41.80
39969;DHT22;25648;47.808;19.004;2022-07-29T10:48:29;38.10;42.60
39969;DHT22;25648;47.808;19.004;2022-07-29T10:51:02;38.10;42.10
39969;DHT22;25648;47.808;19.004;2022-07-29T10:53:50;38.10;41.80
39969;DHT22;25648;47.808;19.004;2022-07-29T11:01:44;37.90;40.40
39969;DHT22;25648;47.808;19.004;2022-07-29T11:04:09;37.90;41.20
39969;DHT22;25648;47.808;19.004;2022-07-29T11:09:27;37.70;41.60
39969;DHT22;25648;47.808;19.004;2022-07-29T11:11:55;37.90;41.80
39969;DHT22;25648;47.808;19.004;2022-07-29T11:17:18;38.70;41.50
39969;DHT22;25648;47.808;19.004;2022-07-29T11:19:43;38.50;40.50
39969;DHT22;25648;47.808;19.004;2022-07-29T11:22:32;37.80;41.90
39969;DHT22;25648;47.808;19.004;2022-07-29T11:25:19;38.20;41.80
39969;DHT22;25648;47.808;19.004;2022-07-29T11:27:45;38.60;41.00
39969;DHT22;25648;47.808;19.004;2022-07-29T11:30:11;39.00;40.50
39969;DHT22;25648;47.808;19.004;2022-07-29T11:32:39;39.00;40.40
39969;DHT22;25648;47.808;19.004;2022-07-29T11:35:23;38.50;40.30
39969;DHT22;25648;47.808;19.004;2022-07-29T11:41:25;37.20;40.90
39969;DHT22;25648;47.808;19.004;2022-07-29T11:43:57;36.70;41.40
39969;DHT22;25648;47.808;19.004;2022-07-29T11:46:47;37.20;41.10
39969;DHT22;25648;47.808;19.004;2022-07-29T11:49:24;37.30;41.00
39969;DHT22;25648;47.808;19.004;2022-07-29T11:51:52;36.90;40.50
39969;DHT22;25648;47.808;19.004;2022-07-29T11:54:30;36.90;41.80
39969;DHT22;25648;47.808;19.004;2022-07-29T11:56:58;36.90;41.30
39969;DHT22;25648;47.808;19.004;2022-07-29T11:59:24;37.10;41.60
39969;DHT22;25648;47.808;19.004;2022-07-29T12:01:58;37.00;41.70
39969;DHT22;25648;47.808;19.004;2022-07-29T12:04:24;37.10;41.40
39969;DHT22;25648;47.808;19.004;2022-07-29T12:06:52;37.10;41.30
39969;DHT22;25648;47.808;19.004;2022-07-29T12:09:19;37.10;41.60
39969;DHT22;25648;47.808;19.004;2022-07-29T12:11:46;37.30;41.00
39969;DHT22;25648;47.808;19.004;2022-07-29T12:14:28;37.40;41.60
39969;DHT22;25648;47.808;19.004;2022-07-29T12:16:54;37.40;41.30
39969;DHT22;25648;47.808;19.004;2022-07-29T12:19:19;37.50;41.20
39969;DHT22;25648;47.808;19.004;2022-07-29T12:21:46;37.80;41.20
39969;DHT22;25648;47.808;19.004;2022-07-29T12:24:12;38.10;40.90
39969;DHT22;25648;47.808;19.004;2022-07-29T12:26:52;38.00;40.80
39969;DHT22;25648;47.808;19.004;2022-07-29T12:29:18;37.70;41.50
39969;DHT22;25648;47.808;19.004;2022-07-29T12:31:45;37.80;41.50
39969;DHT22;25648;47.808;19.004;2022-07-29T12:34:15;38.10;41.80
39969;DHT22;25648;47.808;19.004;2022-07-29T12:36:42;37.90;42.10
39969;DHT22;25648;47.808;19.004;2022-07-29T12:39:09;38.00;41.20
39969;DHT22;25648;47.808;19.004;2022-07-29T12:41:35;37.70;40.70
39969;DHT22;25648;47.808;19.004;2022-07-29T12:44:01;37.40;40.50
39969;DHT22;25648;47.808;19.004;2022-07-29T12:46:27;37.50;41.00
39969;DHT22;25648;47.808;19.004;2022-07-29T12:48:54;37.50;40.80
39969;DHT22;25648;47.808;19.004;2022-07-29T12:51:35;37.70;41.50
39969;DHT22;25648;47.808;19.004;2022-07-29T12:54:07;37.90;41.20
39969;DHT22;25648;47.808;19.004;2022-07-29T12:56:33;38.10;41.50
39969;DHT22;25648;47.808;19.004;2022-07-29T12:58:59;38.30;40.50
39969;DHT22;25648;47.808;19.004;2022-07-29T13:01:25;38.70;40.30
39969;DHT22;25648;47.808;19.004;2022-07-29T13:03:53;38.60;40.70
39969;DHT22;25648;47.808;19.004;2022-07-29T13:09:15;38.30;39.70
39969;DHT22;25648;47.808;19.004;2022-07-29T13:11:52;38.20;40.40
39969;DHT22;25648;47.808;19.004;2022-07-29T13:17:11;38.10;40.60
39969;DHT22;25648;47.808;19.004;2022-07-29T13:19:43;38.20;39.90
39969;DHT22;25648;47.808;19.004;2022-07-29T13:22:10;38.20;39.80
39969;DHT22;25648;47.808;19.004;2022-07-29T13:24:53;38.50;39.60
39969;DHT22;25648;47.808;19.004;2022-07-29T13:27:28;38.90;39.60
39969;DHT22;25648;47.808;19.004;2022-07-29T13:29:56;38.60;39.90
39969;DHT22;25648;47.808;19.004;2022-07-29T13:32:23;38.40;40.40
39969;DHT22;25648;47.808;19.004;2022-07-29T13:34:50;38.60;40.50
39969;DHT22;25648;47.808;19.004;2022-07-29T13:37:16;38.70;40.10
39969;DHT22;25648;47.808;19.004;2022-07-29T13:39:44;38.60;39.90
39969;DHT22;25648;47.808;19.004;2022-07-29T13:42:10;38.80;40.90
39969;DHT22;25648;47.808;19.004;2022-07-29T13:44:41;38.40;40.20
39969;DHT22;25648;47.808;19.004;2022-07-29T13:47:07;38.30;39.70
39969;DHT22;25648;47.808;19.004;2022-07-29T13:49:34;37.80;39.90
39969;DHT22;25648;47.808;19.004;2022-07-29T13:52:00;37.60;40.60
39969;DHT22;25648;47.808;19.004;2022-07-29T13:54:25;37.70;40.60
39969;DHT22;25648;47.808;19.004;2022-07-29T13:56:51;38.00;41.70
39969;DHT22;25648;47.808;19.004;2022-07-29T13:59:17;38.40;41.90
39969;DHT22;25648;47.808;19.004;2022-07-29T14:01:43;38.40;40.60
39969;DHT22;25648;47.808;19.004;2022-07-29T14:04:10;38.40;42.10
39969;DHT22;25648;47.808;19.004;2022-07-29T14:06:37;38.70;41.50
39969;DHT22;25648;47.808;19.004;2022-07-29T14:09:03;38.90;39.90
39969;DHT22;25648;47.808;19.004;2022-07-29T14:11:32;39.10;39.80
39969;DHT22;25648;47.808;19.004;2022-07-29T14:13:58;39.30;40.30
39969;DHT22;25648;47.808;19.004;2022-07-29T14:16:23;39.40;39.70
39969;DHT22;25648;47.808;19.004;2022-07-29T14:18:49;39.30;40.00
39969;DHT22;25648;47.808;19.004;2022-07-29T14:21:15;39.30;40.40
39969;DHT22;25648;47.808;19.004;2022-07-29T14:23:40;39.30;40.70
39969;DHT22;25648;47.808;19.004;2022-07-29T14:26:06;39.20;42.90
39969;DHT22;25648;47.808;19.004;2022-07-29T14:28:32;39.10;44.00
39969;DHT22;25648;47.808;19.004;2022-07-29T14:30:58;38.80;44.40
39969;DHT22;25648;47.808;19.004;2022-07-29T14:33:23;38.50;44.00
39969;DHT22;25648;47.808;19.004;2022-07-29T14:35:49;38.20;44.10
39969;DHT22;25648;47.808;19.004;2022-07-29T14:38:15;38.00;43.50
39969;DHT22;25648;47.808;19.004;2022-07-29T14:40:40;38.10;43.40
39969;DHT22;25648;47.808;19.004;2022-07-29T14:43:06;38.20;43.70
39969;DHT22;25648;47.808;19.004;2022-07-29T14:45:32;38.20;44.80
39969;DHT22;25648;47.808;19.004;2022-07-29T14:47:58;38.20;45.70
39969;DHT22;25648;47.808;19.004;2022-07-29T14:50:25;38.10;46.10
39969;DHT22;25648;47.808;19.004;2022-07-29T14:52:52;38.00;45.30
39969;DHT22;25648;47.808;19.004;2022-07-29T14:55:18;37.90;45.10
39969;DHT22;25648;47.808;19.004;2022-07-29T14:57:43;37.90;45.30
39969;DHT22;25648;47.808;19.004;2022-07-29T15:00:10;37.80;44.90
39969;DHT22;25648;47.808;19.004;2022-07-29T15:02:36;37.80;45.00
39969;DHT22;25648;47.808;19.004;2022-07-29T15:05:02;37.70;46.60
39969;DHT22;25648;47.808;19.004;2022-07-29T15:07:28;37.80;45.40
39969;DHT22;25648;47.808;19.004;2022-07-29T15:09:54;37.80;45.70
39969;DHT22;25648;47.808;19.004;2022-07-29T15:12:20;37.90;45.30
39969;DHT22;25648;47.808;19.004;2022-07-29T15:14:45;38.10;45.50
39969;DHT22;25648;47.808;19.004;2022-07-29T15:17:11;37.80;43.60
39969;DHT22;25648;47.808;19.004;2022-07-29T15:19:37;38.10;43.30
39969;DHT22;25648;47.808;19.004;2022-07-29T15:22:03;38.30;42.70
39969;DHT22;25648;47.808;19.004;2022-07-29T15:24:30;38.50;42.00
39969;DHT22;25648;47.808;19.004;2022-07-29T15:26:56;38.60;42.60
39969;DHT22;25648;47.808;19.004;2022-07-29T15:29:22;38.80;40.40
39969;DHT22;25648;47.808;19.004;2022-07-29T15:31:47;39.00;40.70
39969;DHT22;25648;47.808;19.004;2022-07-29T15:34:13;39.20;39.50
39969;DHT22;25648;47.808;19.004;2022-07-29T15:36:39;39.20;39.50
39969;DHT22;25648;47.808;19.004;2022-07-29T15:39:05;39.20;39.80
39969;DHT22;25648;47.808;19.004;2022-07-29T15:41:31;39.20;39.40
39969;DHT22;25648;47.808;19.004;2022-07-29T15:43:57;39.40;39.00
39969;DHT22;25648;47.808;19.004;2022-07-29T15:46:22;39.40;39.20
39969;DHT22;25648;47.808;19.004;2022-07-29T15:49:07;39.50;38.80
39969;DHT22;25648;47.808;19.004;2022-07-29T15:51:33;39.70;39.20
39969;DHT22;25648;47.808;19.004;2022-07-29T15:54:01;39.60;38.70
39969;DHT22;25648;47.808;19.004;2022-07-29T15:56:28;39.40;38.80
39969;DHT22;25648;47.808;19.004;2022-07-29T15:58:53;39.40;38.90
39969;DHT22;25648;47.808;19.004;2022-07-29T16:01:19;38.90;39.00
39969;DHT22;25648;47.808;19.004;2022-07-29T16:03:45;38.90;39.10
39969;DHT22;25648;47.808;19.004;2022-07-29T16:06:11;38.90;39.10
39969;DHT22;25648;47.808;19.004;2022-07-29T16:08:37;39.00;39.00
39969;DHT22;25648;47.808;19.004;2022-07-29T16:11:02;39.00;39.80
39969;DHT22;25648;47.808;19.004;2022-07-29T16:13:28;39.10;39.10